sensor_id;sensor_type;location;lat;lon;timestamp;pressure;altitude;pressure_sealevel;temperature;humidity
48216;BME280;34005;48.844;10.098;2022-07-04T00:01:11;96842.66;;;21.79;52.90
48216;BME280;34005;48.844;10.098;2022-07-04T00:03:39;96840.50;;;21.76;53.03
48216;BME280;34005;48.844;10.098;2022-07-04T00:06:07;96838.59;;;21.71;52.64
48216;BME280;34005;48.844;10.098;2022-07-04T00:08:34;96838.03;;;21.69;52.94
48216;BME280;34005;48.844;10.098;2022-07-04T00:11:02;96839.88;;;21.69;53.43
48216;BME280;34005;48.844;10.098;2022-07-04T00:13:29;96841.25;;;21.71;54.80
48216;BME280;34005;48.844;10.098;2022-07-04T00:15:57;96845.56;;;21.77;60.89
48216;BME280;34005;48.844;10.098;2022-07-04T00:18:26;96836.06;;;21.81;57.37
48216;BME280;34005;48.844;10.098;2022-07-04T00:20:54;96836.31;;;21.80;55.11
48216;BME280;34005;48.844;10.098;2022-07-04T00:23:21;96838.16;;;21.79;56.64
48216;BME280;34005;48.844;10.098;2022-07-04T00:25:49;96833.09;;;21.78;54.04
48216;BME280;34005;48.844;10.098;2022-07-04T00:28:16;96823.53;;;21.77;54.70
48216;BME280;34005;48.844;10.098;2022-07-04T00:30:44;96822.41;;;21.73;53.77
48216;BME280;34005;48.844;10.098;2022-07-04T00:33:12;96806.19;;;21.69;53.67
48216;BME280;34005;48.844;10.098;2022-07-04T00:35:41;96806.66;;;21.66;53.42
48216;BME280;34005;48.844;10.098;2022-07-04T00:38:09;96804.50;;;21.63;53.33
48216;BME280;34005;48.844;10.098;2022-07-04T00:40:37;96802.34;;;21.60;53.87
48216;BME280;34005;48.844;10.098;2022-07-04T00:43:05;96797.53;;;21.57;53.74
48216;BME280;34005;48.844;10.098;2022-07-04T00:45:32;96805.25;;;21.58;54.77
48216;BME280;34005;48.844;10.098;2022-07-04T00:48:00;96805.00;;;21.60;56.96
48216;BME280;34005;48.844;10.098;2022-07-04T00:50:28;96802.66;;;21.64;61.79
48216;BME280;34005;48.844;10.098;2022-07-04T00:52:57;96785.13;;;21.63;55.66
48216;BME280;34005;48.844;10.098;2022-07-04T00:55:24;96786.13;;;21.56;54.88
48216;BME280;34005;48.844;10.098;2022-07-04T00:57:52;96786.03;;;21.51;54.32
48216;BME280;34005;48.844;10.098;2022-07-04T01:00:21;96796.38;;;21.48;54.24
48216;BME280;34005;48.844;10.098;2022-07-04T01:02:49;96798.47;;;21.46;54.33
48216;BME280;34005;48.844;10.098;2022-07-04T01:05:16;96797.91;;;21.44;54.36
48216;BME280;34005;48.844;10.098;2022-07-04T01:07:44;96804.25;;;21.43;54.45
48216;BME280;34005;48.844;10.098;2022-07-04T01:10:13;96802.06;;;21.39;54.60
48216;BME280;34005;48.844;10.098;2022-07-04T01:12:41;96802.56;;;21.36;54.45
48216;BME280;34005;48.844;10.098;2022-07-04T01:15:09;96807.56;;;21.33;54.87
48216;BME280;34005;48.844;10.098;2022-07-04T01:17:37;96833.75;;;21.29;54.65
48216;BME280;34005;48.844;10.098;2022-07-04T01:20:06;96851.78;;;21.27;55.31
48216;BME280;34005;48.844;10.098;2022-07-04T01:22:35;96826.28;;;21.26;54.55
48216;BME280;34005;48.844;10.098;2022-07-04T01:25:03;96822.03;;;21.25;57.52
48216;BME280;34005;48.844;10.098;2022-07-04T01:27:30;96833.75;;;21.29;55.20
48216;BME280;34005;48.844;10.098;2022-07-04T01:29:58;96834.50;;;21.25;54.59
48216;BME280;34005;48.844;10.098;2022-07-04T01:32:26;96839.56;;;21.26;58.68
48216;BME280;34005;48.844;10.098;2022-07-04T01:34:53;96830.53;;;21.27;56.20
48216;BME280;34005;48.844;10.098;2022-07-04T01:37:21;96831.03;;;21.24;55.32
48216;BME280;34005;48.844;10.098;2022-07-04T01:39:50;96838.94;;;21.19;55.29
48216;BME280;34005;48.844;10.098;2022-07-04T01:42:17;96836.19;;;21.14;55.40
48216;BME280;34005;48.844;10.098;2022-07-04T01:44:45;96831.38;;;21.11;55.57
48216;BME280;34005;48.844;10.098;2022-07-04T01:47:13;96828.97;;;21.09;58.33
48216;BME280;34005;48.844;10.098;2022-07-04T01:49:40;96837.97;;;21.08;56.82
48216;BME280;34005;48.844;10.098;2022-07-04T01:52:08;96834.28;;;21.09;58.89
48216;BME280;34005;48.844;10.098;2022-07-04T01:54:35;96836.38;;;21.07;56.47
48216;BME280;34005;48.844;10.098;2022-07-04T01:57:05;96827.53;;;21.02;56.29
48216;BME280;34005;48.844;10.098;2022-07-04T01:59:33;96821.34;;;20.96;56.34
48216;BME280;34005;48.844;10.098;2022-07-04T02:02:18;96829.69;;;20.88;56.43
48216;BME280;34005;48.844;10.098;2022-07-04T02:04:46;96840.25;;;20.83;56.62
48216;BME280;34005;48.844;10.098;2022-07-04T02:07:14;96841.03;;;20.83;59.66
48216;BME280;34005;48.844;10.098;2022-07-04T02:09:42;96853.81;;;20.86;58.10
48216;BME280;34005;48.844;10.098;2022-07-04T02:12:11;96847.97;;;20.84;56.97
48216;BME280;34005;48.844;10.098;2022-07-04T02:14:56;96853.72;;;20.81;57.23
48216;BME280;34005;48.844;10.098;2022-07-04T02:17:24;96864.34;;;20.81;57.79
48216;BME280;34005;48.844;10.098;2022-07-04T02:19:51;96857.44;;;20.80;56.94
48216;BME280;34005;48.844;10.098;2022-07-04T02:22:19;96855.03;;;20.78;57.48
48216;BME280;34005;48.844;10.098;2022-07-04T02:24:47;96862.19;;;20.78;57.04
48216;BME280;34005;48.844;10.098;2022-07-04T02:27:17;96864.81;;;20.78;58.64
48216;BME280;34005;48.844;10.098;2022-07-04T02:29:44;96869.16;;;20.84;62.02
48216;BME280;34005;48.844;10.098;2022-07-04T02:32:12;96877.19;;;20.89;61.08
48216;BME280;34005;48.844;10.098;2022-07-04T02:34:39;96881.94;;;20.87;58.61
48216;BME280;34005;48.844;10.098;2022-07-04T02:37:07;96874.94;;;20.81;58.16
48216;BME280;34005;48.844;10.098;2022-07-04T02:39:36;96888.13;;;20.76;58.43
48216;BME280;34005;48.844;10.098;2022-07-04T02:42:04;96890.69;;;20.71;58.58
48216;BME280;34005;48.844;10.098;2022-07-04T02:44:33;96903.22;;;20.75;62.48
48216;BME280;34005;48.844;10.098;2022-07-04T02:47:00;96898.94;;;20.74;59.12
48216;BME280;34005;48.844;10.098;2022-07-04T02:49:28;96893.56;;;20.69;58.89
48216;BME280;34005;48.844;10.098;2022-07-04T02:51:56;96898.53;;;20.66;58.45
48216;BME280;34005;48.844;10.098;2022-07-04T02:54:23;96894.28;;;20.65;59.16
48216;BME280;34005;48.844;10.098;2022-07-04T02:56:51;96898.09;;;20.69;61.96
48216;BME280;34005;48.844;10.098;2022-07-04T02:59:18;96906.59;;;20.71;59.31
48216;BME280;34005;48.844;10.098;2022-07-04T03:01:47;96906.59;;;20.71;59.52
48216;BME280;34005;48.844;10.098;2022-07-04T03:04:15;96904.50;;;20.73;59.86
48216;BME280;34005;48.844;10.098;2022-07-04T03:06:43;96908.03;;;20.78;62.63
48216;BME280;34005;48.844;10.098;2022-07-04T03:09:10;96910.47;;;20.80;59.51
48216;BME280;34005;48.844;10.098;2022-07-04T03:11:38;96919.44;;;20.79;59.05
48216;BME280;34005;48.844;10.098;2022-07-04T03:14:06;96923.50;;;20.82;61.44
48216;BME280;34005;48.844;10.098;2022-07-04T03:16:33;96928.53;;;20.83;60.43
48216;BME280;34005;48.844;10.098;2022-07-04T03:19:02;96927.50;;;20.84;60.57
48216;BME280;34005;48.844;10.098;2022-07-04T03:21:30;96920.56;;;20.83;59.00
48216;BME280;34005;48.844;10.098;2022-07-04T03:23:57;96922.09;;;20.79;58.94
48216;BME280;34005;48.844;10.098;2022-07-04T03:26:26;96936.19;;;20.80;59.92
48216;BME280;34005;48.844;10.098;2022-07-04T03:28:53;96944.69;;;20.82;60.97
48216;BME280;34005;48.844;10.098;2022-07-04T03:31:21;96941.78;;;20.83;61.28
48216;BME280;34005;48.844;10.098;2022-07-04T03:33:50;96944.69;;;20.82;60.32
48216;BME280;34005;48.844;10.098;2022-07-04T03:36:19;96943.88;;;20.81;59.61
48216;BME280;34005;48.844;10.098;2022-07-04T03:38:47;96941.22;;;20.81;60.64
48216;BME280;34005;48.844;10.098;2022-07-04T03:41:15;96956.91;;;20.83;60.56
48216;BME280;34005;48.844;10.098;2022-07-04T03:43:43;96942.28;;;20.80;60.33
48216;BME280;34005;48.844;10.098;2022-07-04T03:46:10;96947.09;;;20.83;61.37
48216;BME280;34005;48.844;10.098;2022-07-04T03:48:38;96943.88;;;20.81;59.99
48216;BME280;34005;48.844;10.098;2022-07-04T03:51:10;96949.66;;;20.78;61.74
48216;BME280;34005;48.844;10.098;2022-07-04T03:53:40;96944.94;;;20.80;62.82
48216;BME280;34005;48.844;10.098;2022-07-04T03:56:08;96962.44;;;20.81;60.52
48216;BME280;34005;48.844;10.098;2022-07-04T03:58:36;96966.72;;;20.82;61.98
48216;BME280;34005;48.844;10.098;2022-07-04T04:01:04;96956.91;;;20.83;61.62
48216;BME280;34005;48.844;10.098;2022-07-04T04:03:31;96956.09;;;20.82;60.54
48216;BME280;34005;48.844;10.098;2022-07-04T04:06:16;96948.38;;;20.81;61.49
48216;BME280;34005;48.844;10.098;2022-07-04T04:08:46;96956.09;;;20.82;62.06
48216;BME280;34005;48.844;10.098;2022-07-04T04:11:13;96958.97;;;20.81;60.33
48216;BME280;34005;48.844;10.098;2022-07-04T04:13:41;96960.03;;;20.80;62.10
48216;BME280;34005;48.844;10.098;2022-07-04T04:16:08;96956.56;;;20.79;60.91
48216;BME280;34005;48.844;10.098;2022-07-04T04:18:36;96948.59;;;20.79;62.06
48216;BME280;34005;48.844;10.098;2022-07-04T04:21:04;96951.81;;;20.81;62.47
48216;BME280;34005;48.844;10.098;2022-07-04T04:23:32;96951.03;;;20.81;62.67
48216;BME280;34005;48.844;10.098;2022-07-04T04:26:01;96951.75;;;20.76;60.07
48216;BME280;34005;48.844;10.098;2022-07-04T04:28:29;96947.97;;;20.72;60.41
48216;BME280;34005;48.844;10.098;2022-07-04T04:30:56;96960.41;;;20.71;61.92
48216;BME280;34005;48.844;10.098;2022-07-04T04:33:24;96946.59;;;20.69;60.43
48216;BME280;34005;48.844;10.098;2022-07-04T04:35:52;96952.47;;;20.71;61.88
48216;BME280;34005;48.844;10.098;2022-07-04T04:38:19;96952.22;;;20.73;60.72
48216;BME280;34005;48.844;10.098;2022-07-04T04:40:47;96960.19;;;20.73;59.66
48216;BME280;34005;48.844;10.098;2022-07-04T04:43:16;96975.53;;;20.71;59.46
48216;BME280;34005;48.844;10.098;2022-07-04T04:45:44;96964.56;;;20.67;58.92
48216;BME280;34005;48.844;10.098;2022-07-04T04:48:12;96962.88;;;20.61;58.94
48216;BME280;34005;48.844;10.098;2022-07-04T04:50:40;96967.84;;;20.57;59.01
48216;BME280;34005;48.844;10.098;2022-07-04T04:53:08;96975.81;;;20.57;59.70
48216;BME280;34005;48.844;10.098;2022-07-04T04:55:36;96977.97;;;20.61;61.03
48216;BME280;34005;48.844;10.098;2022-07-04T04:58:03;96973.25;;;20.63;60.21
48216;BME280;34005;48.844;10.098;2022-07-04T05:00:32;96985.44;;;20.64;61.01
48216;BME280;34005;48.844;10.098;2022-07-04T05:03:00;96990.28;;;20.67;60.77
48216;BME280;34005;48.844;10.098;2022-07-04T05:05:28;96990.28;;;20.67;60.91
48216;BME280;34005;48.844;10.098;2022-07-04T05:07:55;96991.09;;;20.67;59.36
48216;BME280;34005;48.844;10.098;2022-07-04T05:10:23;97000.63;;;20.68;60.10
48216;BME280;34005;48.844;10.098;2022-07-04T05:12:51;96998.81;;;20.69;59.64
48216;BME280;34005;48.844;10.098;2022-07-04T05:15:18;97003.06;;;20.70;59.17
48216;BME280;34005;48.844;10.098;2022-07-04T05:17:47;97017.69;;;20.72;59.73
48216;BME280;34005;48.844;10.098;2022-07-04T05:20:15;97014.22;;;20.72;60.19
48216;BME280;34005;48.844;10.098;2022-07-04T05:22:42;97009.50;;;20.74;60.48
48216;BME280;34005;48.844;10.098;2022-07-04T05:25:10;97006.84;;;20.74;58.67
48216;BME280;34005;48.844;10.098;2022-07-04T05:27:38;97006.84;;;20.74;58.80
48216;BME280;34005;48.844;10.098;2022-07-04T05:30:07;97003.97;;;20.75;60.08
48216;BME280;34005;48.844;10.098;2022-07-04T05:32:38;96998.19;;;20.78;61.02
48216;BME280;34005;48.844;10.098;2022-07-04T05:35:08;97000.59;;;20.80;59.51
48216;BME280;34005;48.844;10.098;2022-07-04T05:37:35;97000.13;;;20.83;59.42
48216;BME280;34005;48.844;10.098;2022-07-04T05:40:04;97003.81;;;20.82;58.16
48216;BME280;34005;48.844;10.098;2022-07-04T05:42:31;96997.72;;;20.82;59.12
48216;BME280;34005;48.844;10.098;2022-07-04T05:45:01;97003.34;;;20.85;58.91
48216;BME280;34005;48.844;10.098;2022-07-04T05:47:28;97010.00;;;20.88;58.33
48216;BME280;34005;48.844;10.098;2022-07-04T05:49:56;97010.34;;;20.91;59.08
48216;BME280;34005;48.844;10.098;2022-07-04T05:52:26;97018.06;;;20.93;58.13
48216;BME280;34005;48.844;10.098;2022-07-04T05:54:53;97016.22;;;20.93;58.49
48216;BME280;34005;48.844;10.098;2022-07-04T05:57:21;97019.44;;;20.95;58.51
48216;BME280;34005;48.844;10.098;2022-07-04T05:59:49;97019.44;;;20.95;58.08
48216;BME280;34005;48.844;10.098;2022-07-04T06:02:16;97017.59;;;20.96;58.57
48216;BME280;34005;48.844;10.098;2022-07-04T06:04:44;97027.97;;;20.97;57.66
48216;BME280;34005;48.844;10.098;2022-07-04T06:07:12;97033.28;;;20.97;58.34
48216;BME280;34005;48.844;10.098;2022-07-04T06:09:41;97028.75;;;20.98;57.65
48216;BME280;34005;48.844;10.098;2022-07-04T06:12:10;97034.41;;;21.02;58.58
48216;BME280;34005;48.844;10.098;2022-07-04T06:14:37;97039.22;;;21.05;58.66
48216;BME280;34005;48.844;10.098;2022-07-04T06:17:05;97028.97;;;21.08;58.57
48216;BME280;34005;48.844;10.098;2022-07-04T06:49:17;97039.97;;;21.46;53.79
48216;BME280;34005;48.844;10.098;2022-07-04T06:51:50;97032.56;;;21.48;54.10
48216;BME280;34005;48.844;10.098;2022-07-04T06:54:24;97028.41;;;21.52;54.10
48216;BME280;34005;48.844;10.098;2022-07-04T06:57:04;97029.25;;;21.57;55.30
48216;BME280;34005;48.844;10.098;2022-07-04T06:59:58;97021.41;;;21.63;53.64
48216;BME280;34005;48.844;10.098;2022-07-04T07:02:38;97020.66;;;21.67;54.35
48216;BME280;34005;48.844;10.098;2022-07-04T07:05:20;97020.19;;;21.70;53.94
48216;BME280;34005;48.844;10.098;2022-07-04T07:08:25;97023.97;;;21.74;54.36
48216;BME280;34005;48.844;10.098;2022-07-04T07:10:57;97021.38;;;21.79;54.61
48216;BME280;34005;48.844;10.098;2022-07-04T07:13:53;97019.84;;;21.84;53.52
48216;BME280;34005;48.844;10.098;2022-07-04T07:16:33;97015.66;;;21.88;53.97
48216;BME280;34005;48.844;10.098;2022-07-04T07:19:12;97018.38;;;21.93;53.99
48216;BME280;34005;48.844;10.098;2022-07-04T07:21:51;97021.34;;;21.96;54.98
48216;BME280;34005;48.844;10.098;2022-07-04T07:24:23;97021.19;;;22.03;54.48
48216;BME280;34005;48.844;10.098;2022-07-04T07:26:58;97019.72;;;22.12;53.91
48216;BME280;34005;48.844;10.098;2022-07-04T07:29:37;97016.06;;;22.18;54.82
48216;BME280;34005;48.844;10.098;2022-07-04T07:32:19;97018.81;;;22.24;53.63
48216;BME280;34005;48.844;10.098;2022-07-04T07:35:05;97016.25;;;22.29;53.80
48216;BME280;34005;48.844;10.098;2022-07-04T07:37:42;97017.91;;;22.35;54.03
48216;BME280;34005;48.844;10.098;2022-07-04T07:40:16;97018.53;;;22.42;52.61
48216;BME280;34005;48.844;10.098;2022-07-04T07:43:23;97003.44;;;22.48;52.38
48216;BME280;34005;48.844;10.098;2022-07-04T07:45:57;96999.22;;;22.52;51.99
48216;BME280;34005;48.844;10.098;2022-07-04T07:48:41;96984.41;;;22.56;52.74
48216;BME280;34005;48.844;10.098;2022-07-04T07:51:23;96986.31;;;22.60;52.31
48216;BME280;34005;48.844;10.098;2022-07-04T08:15:45;96968.81;;;23.19;50.79
48216;BME280;34005;48.844;10.098;2022-07-04T08:18:35;96977.91;;;23.23;50.74
48216;BME280;34005;48.844;10.098;2022-07-04T08:21:03;96975.25;;;23.23;50.24
48216;BME280;34005;48.844;10.098;2022-07-04T08:23:38;96973.09;;;23.20;50.16
48216;BME280;34005;48.844;10.098;2022-07-04T08:26:17;96971.47;;;23.19;51.19
48216;BME280;34005;48.844;10.098;2022-07-04T08:28:45;96968.03;;;23.18;50.57
48216;BME280;34005;48.844;10.098;2022-07-04T08:31:15;96967.78;;;23.20;50.66
48216;BME280;34005;48.844;10.098;2022-07-04T08:34:03;96963.81;;;23.22;51.20
48216;BME280;34005;48.844;10.098;2022-07-04T08:36:31;96969.94;;;23.28;51.31
48216;BME280;34005;48.844;10.098;2022-07-04T08:38:59;96964.13;;;23.31;50.86
48216;BME280;34005;48.844;10.098;2022-07-04T08:41:29;96972.41;;;23.35;51.10
48216;BME280;34005;48.844;10.098;2022-07-04T08:44:02;96968.97;;;23.39;50.52
48216;BME280;34005;48.844;10.098;2022-07-04T08:46:31;96971.38;;;23.41;50.56
48216;BME280;34005;48.844;10.098;2022-07-04T08:49:02;96978.34;;;23.42;50.86
48216;BME280;34005;48.844;10.098;2022-07-04T08:51:40;96975.41;;;23.43;51.31
48216;BME280;34005;48.844;10.098;2022-07-04T08:54:12;96974.59;;;23.43;50.99
48216;BME280;34005;48.844;10.098;2022-07-04T08:56:58;96977.50;;;23.41;50.53
48216;BME280;34005;48.844;10.098;2022-07-04T08:59:43;96974.84;;;23.41;50.30
48216;BME280;34005;48.844;10.098;2022-07-04T09:02:16;96978.06;;;23.43;50.68
48216;BME280;34005;48.844;10.098;2022-07-04T09:04:45;96987.38;;;23.46;50.97
48216;BME280;34005;48.844;10.098;2022-07-04T09:07:14;96986.66;;;23.51;50.38
48216;BME280;34005;48.844;10.098;2022-07-04T09:09:45;96988.78;;;23.54;50.81
48216;BME280;34005;48.844;10.098;2022-07-04T09:12:18;96996.81;;;23.59;50.79
48216;BME280;34005;48.844;10.098;2022-07-04T09:14:46;96996.31;;;23.62;50.55
48216;BME280;34005;48.844;10.098;2022-07-04T09:17:15;96996.59;;;23.65;50.66
48216;BME280;34005;48.844;10.098;2022-07-04T09:19:43;96988.91;;;23.69;50.75
48216;BME280;34005;48.844;10.098;2022-07-04T09:22:12;96994.59;;;23.78;50.51
48216;BME280;34005;48.844;10.098;2022-07-04T09:24:44;96992.75;;;23.83;50.64
48216;BME280;34005;48.844;10.098;2022-07-04T09:27:13;96999.97;;;23.88;50.49
48216;BME280;34005;48.844;10.098;2022-07-04T09:30:05;97008.56;;;24.00;50.80
48216;BME280;34005;48.844;10.098;2022-07-04T09:32:36;97008.94;;;24.14;50.35
48216;BME280;34005;48.844;10.098;2022-07-04T09:35:06;97018.31;;;24.27;49.89
48216;BME280;34005;48.844;10.098;2022-07-04T09:37:39;97022.63;;;24.38;49.33
48216;BME280;34005;48.844;10.098;2022-07-04T09:40:09;97023.50;;;24.49;48.39
48216;BME280;34005;48.844;10.098;2022-07-04T09:42:39;97025.66;;;24.57;48.30
48216;BME280;34005;48.844;10.098;2022-07-04T09:45:09;97017.16;;;24.65;47.75
48216;BME280;34005;48.844;10.098;2022-07-04T09:47:40;97019.59;;;24.77;46.59
48216;BME280;34005;48.844;10.098;2022-07-04T09:50:13;97019.88;;;24.86;46.40
48216;BME280;34005;48.844;10.098;2022-07-04T09:52:49;97019.38;;;24.89;46.24
48216;BME280;34005;48.844;10.098;2022-07-04T09:55:24;97017.78;;;24.93;44.51
48216;BME280;34005;48.844;10.098;2022-07-04T09:57:54;97027.66;;;25.03;44.75
48216;BME280;34005;48.844;10.098;2022-07-04T10:00:26;97027.16;;;25.11;44.10
48216;BME280;34005;48.844;10.098;2022-07-04T10:06:39;97020.28;;;25.25;45.98
48216;BME280;34005;48.844;10.098;2022-07-04T10:09:12;97022.13;;;25.30;45.32
48216;BME280;34005;48.844;10.098;2022-07-04T10:11:41;97028.53;;;25.29;44.58
48216;BME280;34005;48.844;10.098;2022-07-04T10:14:10;97028.78;;;25.22;44.83
48216;BME280;34005;48.844;10.098;2022-07-04T10:16:39;97034.34;;;25.16;45.09
48216;BME280;34005;48.844;10.098;2022-07-04T10:19:09;97037.03;;;25.11;45.53
48216;BME280;34005;48.844;10.098;2022-07-04T10:21:39;97037.53;;;25.07;45.73
48216;BME280;34005;48.844;10.098;2022-07-04T10:24:07;97051.44;;;25.09;46.00
48216;BME280;34005;48.844;10.098;2022-07-04T10:26:38;97038.63;;;25.12;44.74
48216;BME280;34005;48.844;10.098;2022-07-04T10:29:39;97043.97;;;25.17;45.67
48216;BME280;34005;48.844;10.098;2022-07-04T10:35:48;97034.38;;;25.21;45.39
48216;BME280;34005;48.844;10.098;2022-07-04T10:38:18;97036.53;;;25.24;45.90
48216;BME280;34005;48.844;10.098;2022-07-04T10:44:27;97021.84;;;25.47;45.82
48216;BME280;34005;48.844;10.098;2022-07-04T10:47:28;97023.22;;;25.49;46.03
48216;BME280;34005;48.844;10.098;2022-07-04T10:50:28;97016.53;;;25.52;45.14
48216;BME280;34005;48.844;10.098;2022-07-04T10:54:07;97027.47;;;25.56;46.18
48216;BME280;34005;48.844;10.098;2022-07-04T10:57:31;97018.94;;;25.59;45.84
48216;BME280;34005;48.844;10.098;2022-07-04T11:00:38;97019.47;;;25.61;45.37
48216;BME280;34005;48.844;10.098;2022-07-04T11:03:38;97014.66;;;25.63;45.84
48216;BME280;34005;48.844;10.098;2022-07-04T11:24:21;97017.31;;;25.73;43.39
48216;BME280;34005;48.844;10.098;2022-07-04T11:31:06;97007.16;;;25.90;44.44
48216;BME280;34005;48.844;10.098;2022-07-04T15:41:16;96784.16;;;26.86;35.34
48216;BME280;34005;48.844;10.098;2022-07-04T15:44:05;96787.88;;;26.85;35.90
48216;BME280;34005;48.844;10.098;2022-07-04T16:26:59;96768.94;;;26.81;36.51
48216;BME280;34005;48.844;10.098;2022-07-04T16:35:44;96753.09;;;26.85;37.94
48216;BME280;34005;48.844;10.098;2022-07-04T21:45:13;96927.31;;;23.18;44.17
48216;BME280;34005;48.844;10.098;2022-07-04T21:48:42;96926.69;;;23.11;44.88
48216;BME280;34005;48.844;10.098;2022-07-04T21:51:50;96932.53;;;23.08;44.62
48216;BME280;34005;48.844;10.098;2022-07-04T22:03:25;96938.25;;;22.94;45.00
48216;BME280;34005;48.844;10.098;2022-07-04T22:06:31;96942.72;;;22.89;45.48
48216;BME280;34005;48.844;10.098;2022-07-04T22:09:56;96944.25;;;22.84;45.39
48216;BME280;34005;48.844;10.098;2022-07-04T22:23:34;96943.75;;;22.60;47.08
48216;BME280;34005;48.844;10.098;2022-07-04T22:26:23;96949.59;;;22.57;47.43
48216;BME280;34005;48.844;10.098;2022-07-04T22:29:05;96949.78;;;22.51;47.49
48216;BME280;34005;48.844;10.098;2022-07-04T22:34:47;96952.75;;;22.32;47.28
48216;BME280;34005;48.844;10.098;2022-07-04T22:40:28;96953.84;;;22.14;46.95
48216;BME280;34005;48.844;10.098;2022-07-04T22:43:12;96961.72;;;22.04;46.73
48216;BME280;34005;48.844;10.098;2022-07-04T23:05:11;96964.69;;;21.52;46.39
